Square Butte, Montana
Current Conditions -  °F | °C
As of 11:56 AM on Thursday 23 Oct 2014 (Local Time) from KGFA Reporting Station
Clear Clear  
Wind Chill: 58°   Ceiling: Unl
Heat Index: 58°   Visibility: 10mi
Dew Point: 38°   Wind: 21mph
Humidity: 47%   Direction: 230°SW
Pressure: 29.84"   Gusts: 29mph
Location:  47.5886°N, 110.344°W
Report Text: KGFA 231756Z AUTO 23018G25KT 10SM CLR 15/03 A2984 RMK AO2 SLP108 T01460033 10146 20099 55000
Loading
Personal Weather Stations






























Interactive Weather Map
Tropical Storm Tracking
New forecast layout! Learn more

10-Day Weather Forecast

Advertisements
Track Severe Weather on mobile